sensor_id;sensor_type;location;lat;lon;timestamp;P1;durP1;ratioP1;P2;durP2;ratioP2
41653;SDS011;68687;52.030;7.110;2023-07-13T00:01:25;8.65;;;3.70;;
41653;SDS011;68687;52.030;7.110;2023-07-13T00:03:51;9.75;;;4.03;;
41653;SDS011;68687;52.030;7.110;2023-07-13T00:06:16;9.93;;;4.60;;
41653;SDS011;68687;52.030;7.110;2023-07-13T00:08:42;11.15;;;4.00;;
41653;SDS011;68687;52.030;7.110;2023-07-13T00:11:14;11.27;;;4.38;;
41653;SDS011;68687;52.030;7.110;2023-07-13T00:13:39;8.80;;;4.15;;
41653;SDS011;68687;52.030;7.110;2023-07-13T00:16:05;6.18;;;4.18;;
41653;SDS011;68687;52.030;7.110;2023-07-13T00:18:30;14.73;;;4.68;;
41653;SDS011;68687;52.030;7.110;2023-07-13T00:20:56;8.43;;;3.97;;
41653;SDS011;68687;52.030;7.110;2023-07-13T00:23:29;11.60;;;4.20;;
41653;SDS011;68687;52.030;7.110;2023-07-13T00:26:03;12.52;;;4.35;;
41653;SDS011;68687;52.030;7.110;2023-07-13T00:28:29;9.98;;;4.25;;
41653;SDS011;68687;52.030;7.110;2023-07-13T00:30:54;11.57;;;3.97;;
41653;SDS011;68687;52.030;7.110;2023-07-13T00:33:20;11.52;;;4.63;;
41653;SDS011;68687;52.030;7.110;2023-07-13T00:39:14;14.35;;;4.38;;
41653;SDS011;68687;52.030;7.110;2023-07-13T00:41:40;13.45;;;4.88;;
41653;SDS011;68687;52.030;7.110;2023-07-13T00:44:15;11.07;;;4.00;;
41653;SDS011;68687;52.030;7.110;2023-07-13T00:46:44;15.32;;;4.65;;
41653;SDS011;68687;52.030;7.110;2023-07-13T00:49:14;12.82;;;4.82;;
41653;SDS011;68687;52.030;7.110;2023-07-13T00:51:43;13.60;;;4.78;;
41653;SDS011;68687;52.030;7.110;2023-07-13T00:54:20;14.52;;;4.75;;
41653;SDS011;68687;52.030;7.110;2023-07-13T00:56:53;11.32;;;4.75;;
41653;SDS011;68687;52.030;7.110;2023-07-13T00:59:22;14.45;;;5.65;;
41653;SDS011;68687;52.030;7.110;2023-07-13T01:01:49;10.02;;;5.15;;
41653;SDS011;68687;52.030;7.110;2023-07-13T01:04:14;10.18;;;5.05;;
41653;SDS011;68687;52.030;7.110;2023-07-13T01:06:43;14.60;;;5.22;;
41653;SDS011;68687;52.030;7.110;2023-07-13T01:09:09;9.73;;;4.88;;
41653;SDS011;68687;52.030;7.110;2023-07-13T01:11:35;14.10;;;5.15;;
41653;SDS011;68687;52.030;7.110;2023-07-13T01:14:01;11.43;;;4.88;;
41653;SDS011;68687;52.030;7.110;2023-07-13T01:16:29;11.10;;;4.95;;
41653;SDS011;68687;52.030;7.110;2023-07-13T01:18:56;17.20;;;4.47;;
41653;SDS011;68687;52.030;7.110;2023-07-13T01:21:34;12.70;;;4.28;;
41653;SDS011;68687;52.030;7.110;2023-07-13T01:24:02;10.15;;;4.75;;
41653;SDS011;68687;52.030;7.110;2023-07-13T01:26:30;13.40;;;5.28;;
41653;SDS011;68687;52.030;7.110;2023-07-13T01:28:56;9.07;;;4.22;;
41653;SDS011;68687;52.030;7.110;2023-07-13T01:31:21;14.90;;;4.10;;
41653;SDS011;68687;52.030;7.110;2023-07-13T01:33:46;10.90;;;4.22;;
41653;SDS011;68687;52.030;7.110;2023-07-13T01:36:12;6.82;;;4.07;;
41653;SDS011;68687;52.030;7.110;2023-07-13T01:38:37;10.43;;;4.50;;
41653;SDS011;68687;52.030;7.110;2023-07-13T01:41:02;10.30;;;4.28;;
41653;SDS011;68687;52.030;7.110;2023-07-13T01:43:28;7.95;;;4.45;;
41653;SDS011;68687;52.030;7.110;2023-07-13T01:45:53;12.38;;;4.57;;
41653;SDS011;68687;52.030;7.110;2023-07-13T01:48:19;7.97;;;3.95;;
41653;SDS011;68687;52.030;7.110;2023-07-13T01:50:45;11.57;;;4.03;;
41653;SDS011;68687;52.030;7.110;2023-07-13T01:53:13;11.45;;;4.47;;
41653;SDS011;68687;52.030;7.110;2023-07-13T01:55:39;10.95;;;4.53;;
41653;SDS011;68687;52.030;7.110;2023-07-13T01:58:04;16.13;;;4.53;;
41653;SDS011;68687;52.030;7.110;2023-07-13T02:00:30;11.60;;;4.25;;
41653;SDS011;68687;52.030;7.110;2023-07-13T02:02:59;13.70;;;4.28;;
41653;SDS011;68687;52.030;7.110;2023-07-13T02:05:24;9.90;;;4.50;;
41653;SDS011;68687;52.030;7.110;2023-07-13T02:07:56;12.57;;;5.10;;
41653;SDS011;68687;52.030;7.110;2023-07-13T02:10:21;13.00;;;4.72;;
41653;SDS011;68687;52.030;7.110;2023-07-13T02:12:47;10.07;;;4.75;;
41653;SDS011;68687;52.030;7.110;2023-07-13T02:15:14;12.80;;;4.97;;
41653;SDS011;68687;52.030;7.110;2023-07-13T02:17:42;13.18;;;4.95;;
41653;SDS011;68687;52.030;7.110;2023-07-13T02:20:08;13.98;;;5.18;;
41653;SDS011;68687;52.030;7.110;2023-07-13T02:22:34;11.93;;;4.47;;
41653;SDS011;68687;52.030;7.110;2023-07-13T02:25:05;11.07;;;5.30;;
41653;SDS011;68687;52.030;7.110;2023-07-13T02:27:31;13.95;;;5.93;;
41653;SDS011;68687;52.030;7.110;2023-07-13T02:29:57;12.32;;;5.00;;
41653;SDS011;68687;52.030;7.110;2023-07-13T02:32:28;9.57;;;5.07;;
41653;SDS011;68687;52.030;7.110;2023-07-13T02:35:05;11.40;;;4.97;;
41653;SDS011;68687;52.030;7.110;2023-07-13T02:37:31;11.02;;;4.63;;
41653;SDS011;68687;52.030;7.110;2023-07-13T02:39:56;12.95;;;6.68;;
41653;SDS011;68687;52.030;7.110;2023-07-13T02:42:21;13.25;;;5.28;;
41653;SDS011;68687;52.030;7.110;2023-07-13T02:44:50;13.55;;;5.18;;
41653;SDS011;68687;52.030;7.110;2023-07-13T02:47:15;10.27;;;4.90;;
41653;SDS011;68687;52.030;7.110;2023-07-13T02:49:41;17.10;;;6.45;;
41653;SDS011;68687;52.030;7.110;2023-07-13T02:52:18;9.32;;;5.03;;
41653;SDS011;68687;52.030;7.110;2023-07-13T02:54:44;11.35;;;5.18;;
41653;SDS011;68687;52.030;7.110;2023-07-13T02:57:12;14.52;;;5.07;;
41653;SDS011;68687;52.030;7.110;2023-07-13T02:59:38;13.48;;;5.18;;
41653;SDS011;68687;52.030;7.110;2023-07-13T03:02:03;18.23;;;5.63;;
41653;SDS011;68687;52.030;7.110;2023-07-13T03:04:29;9.98;;;4.78;;
41653;SDS011;68687;52.030;7.110;2023-07-13T03:06:54;15.32;;;5.43;;
41653;SDS011;68687;52.030;7.110;2023-07-13T03:09:22;9.68;;;4.53;;
41653;SDS011;68687;52.030;7.110;2023-07-13T03:11:55;14.00;;;5.35;;
41653;SDS011;68687;52.030;7.110;2023-07-13T03:14:23;13.10;;;5.05;;
41653;SDS011;68687;52.030;7.110;2023-07-13T03:16:49;15.63;;;5.43;;
41653;SDS011;68687;52.030;7.110;2023-07-13T03:19:14;8.30;;;4.95;;
41653;SDS011;68687;52.030;7.110;2023-07-13T03:21:40;13.80;;;5.05;;
41653;SDS011;68687;52.030;7.110;2023-07-13T03:24:05;8.45;;;4.72;;
41653;SDS011;68687;52.030;7.110;2023-07-13T03:26:31;13.27;;;5.20;;
41653;SDS011;68687;52.030;7.110;2023-07-13T03:28:56;8.77;;;4.80;;
41653;SDS011;68687;52.030;7.110;2023-07-13T03:31:25;9.40;;;4.93;;
41653;SDS011;68687;52.030;7.110;2023-07-13T03:33:52;8.27;;;4.38;;
41653;SDS011;68687;52.030;7.110;2023-07-13T03:36:21;17.45;;;5.05;;
41653;SDS011;68687;52.030;7.110;2023-07-13T03:38:55;10.82;;;4.75;;
41653;SDS011;68687;52.030;7.110;2023-07-13T03:41:23;7.72;;;4.68;;
41653;SDS011;68687;52.030;7.110;2023-07-13T03:43:49;11.98;;;4.97;;
41653;SDS011;68687;52.030;7.110;2023-07-13T03:46:15;10.70;;;4.82;;
41653;SDS011;68687;52.030;7.110;2023-07-13T03:48:45;15.68;;;4.03;;
41653;SDS011;68687;52.030;7.110;2023-07-13T03:51:12;9.00;;;4.15;;
41653;SDS011;68687;52.030;7.110;2023-07-13T03:53:40;9.80;;;3.97;;
41653;SDS011;68687;52.030;7.110;2023-07-13T03:56:06;15.18;;;4.47;;
41653;SDS011;68687;52.030;7.110;2023-07-13T03:58:33;13.43;;;3.90;;
41653;SDS011;68687;52.030;7.110;2023-07-13T04:01:01;8.18;;;4.47;;
41653;SDS011;68687;52.030;7.110;2023-07-13T04:03:27;12.50;;;4.32;;
41653;SDS011;68687;52.030;7.110;2023-07-13T04:05:56;9.98;;;4.43;;
41653;SDS011;68687;52.030;7.110;2023-07-13T04:08:26;9.02;;;4.85;;
41653;SDS011;68687;52.030;7.110;2023-07-13T04:11:04;14.75;;;4.30;;
41653;SDS011;68687;52.030;7.110;2023-07-13T04:13:30;4.55;;;3.17;;
41653;SDS011;68687;52.030;7.110;2023-07-13T04:16:01;9.93;;;4.10;;
41653;SDS011;68687;52.030;7.110;2023-07-13T04:18:26;15.25;;;4.32;;
41653;SDS011;68687;52.030;7.110;2023-07-13T04:20:52;7.72;;;3.53;;
41653;SDS011;68687;52.030;7.110;2023-07-13T04:23:23;7.90;;;4.00;;
41653;SDS011;68687;52.030;7.110;2023-07-13T04:25:49;12.35;;;3.83;;
41653;SDS011;68687;52.030;7.110;2023-07-13T04:28:19;10.93;;;3.97;;
41653;SDS011;68687;52.030;7.110;2023-07-13T04:30:46;13.60;;;3.85;;
41653;SDS011;68687;52.030;7.110;2023-07-13T04:33:11;14.40;;;4.80;;
41653;SDS011;68687;52.030;7.110;2023-07-13T04:35:39;11.27;;;4.47;;
41653;SDS011;68687;52.030;7.110;2023-07-13T04:38:08;10.00;;;4.43;;
41653;SDS011;68687;52.030;7.110;2023-07-13T04:40:36;10.82;;;4.30;;
41653;SDS011;68687;52.030;7.110;2023-07-13T04:43:01;8.23;;;3.63;;
41653;SDS011;68687;52.030;7.110;2023-07-13T04:45:26;11.18;;;4.95;;
41653;SDS011;68687;52.030;7.110;2023-07-13T04:48:04;11.40;;;5.07;;
41653;SDS011;68687;52.030;7.110;2023-07-13T04:50:30;12.70;;;4.35;;
41653;SDS011;68687;52.030;7.110;2023-07-13T04:52:55;13.38;;;4.28;;
41653;SDS011;68687;52.030;7.110;2023-07-13T04:55:20;17.52;;;4.53;;
41653;SDS011;68687;52.030;7.110;2023-07-13T04:57:46;17.33;;;4.65;;
41653;SDS011;68687;52.030;7.110;2023-07-13T05:00:12;9.38;;;4.28;;
41653;SDS011;68687;52.030;7.110;2023-07-13T05:02:39;11.77;;;4.68;;
41653;SDS011;68687;52.030;7.110;2023-07-13T05:05:04;13.77;;;4.55;;
41653;SDS011;68687;52.030;7.110;2023-07-13T05:07:30;12.60;;;4.60;;
41653;SDS011;68687;52.030;7.110;2023-07-13T05:09:57;14.68;;;4.63;;
41653;SDS011;68687;52.030;7.110;2023-07-13T05:12:26;13.88;;;4.57;;
41653;SDS011;68687;52.030;7.110;2023-07-13T05:14:52;9.75;;;5.00;;
41653;SDS011;68687;52.030;7.110;2023-07-13T05:17:17;11.95;;;4.78;;
41653;SDS011;68687;52.030;7.110;2023-07-13T05:19:43;15.15;;;4.80;;
41653;SDS011;68687;52.030;7.110;2023-07-13T05:22:08;12.23;;;4.95;;
41653;SDS011;68687;52.030;7.110;2023-07-13T05:24:33;8.85;;;4.15;;
41653;SDS011;68687;52.030;7.110;2023-07-13T05:27:01;9.80;;;4.25;;
41653;SDS011;68687;52.030;7.110;2023-07-13T05:29:27;13.20;;;5.20;;
41653;SDS011;68687;52.030;7.110;2023-07-13T05:31:52;12.38;;;4.35;;
41653;SDS011;68687;52.030;7.110;2023-07-13T05:34:17;15.02;;;4.53;;
41653;SDS011;68687;52.030;7.110;2023-07-13T05:36:43;15.05;;;4.47;;
41653;SDS011;68687;52.030;7.110;2023-07-13T05:39:08;10.95;;;4.55;;
41653;SDS011;68687;52.030;7.110;2023-07-13T05:41:33;13.07;;;4.88;;
41653;SDS011;68687;52.030;7.110;2023-07-13T05:43:59;17.85;;;4.90;;
41653;SDS011;68687;52.030;7.110;2023-07-13T05:46:24;15.45;;;5.43;;
41653;SDS011;68687;52.030;7.110;2023-07-13T05:48:50;13.18;;;4.32;;
41653;SDS011;68687;52.030;7.110;2023-07-13T05:51:15;18.42;;;5.53;;
41653;SDS011;68687;52.030;7.110;2023-07-13T05:53:40;10.68;;;4.80;;
41653;SDS011;68687;52.030;7.110;2023-07-13T05:56:06;19.83;;;6.10;;
41653;SDS011;68687;52.030;7.110;2023-07-13T05:58:31;15.30;;;5.10;;
41653;SDS011;68687;52.030;7.110;2023-07-13T06:01:00;10.90;;;4.40;;
41653;SDS011;68687;52.030;7.110;2023-07-13T06:03:34;13.23;;;5.28;;
41653;SDS011;68687;52.030;7.110;2023-07-13T06:06:02;10.35;;;5.22;;
41653;SDS011;68687;52.030;7.110;2023-07-13T06:08:32;15.65;;;5.53;;
41653;SDS011;68687;52.030;7.110;2023-07-13T06:11:05;11.93;;;5.72;;
41653;SDS011;68687;52.030;7.110;2023-07-13T06:13:35;13.45;;;4.75;;
41653;SDS011;68687;52.030;7.110;2023-07-13T06:16:04;17.40;;;5.38;;
41653;SDS011;68687;52.030;7.110;2023-07-13T06:20:59;14.60;;;5.30;;
41653;SDS011;68687;52.030;7.110;2023-07-13T06:23:24;12.95;;;5.47;;
41653;SDS011;68687;52.030;7.110;2023-07-13T06:25:50;15.48;;;5.68;;
41653;SDS011;68687;52.030;7.110;2023-07-13T06:28:19;12.75;;;6.03;;
41653;SDS011;68687;52.030;7.110;2023-07-13T06:30:44;19.83;;;6.28;;
41653;SDS011;68687;52.030;7.110;2023-07-13T06:33:09;12.60;;;6.97;;
41653;SDS011;68687;52.030;7.110;2023-07-13T06:35:34;16.70;;;7.18;;
41653;SDS011;68687;52.030;7.110;2023-07-13T06:38:00;19.63;;;9.13;;
41653;SDS011;68687;52.030;7.110;2023-07-13T06:40:31;21.30;;;8.18;;
41653;SDS011;68687;52.030;7.110;2023-07-13T06:42:57;20.98;;;8.95;;
41653;SDS011;68687;52.030;7.110;2023-07-13T06:45:22;22.73;;;9.02;;
41653;SDS011;68687;52.030;7.110;2023-07-13T06:47:48;19.70;;;8.23;;
41653;SDS011;68687;52.030;7.110;2023-07-13T06:50:20;23.13;;;9.00;;
41653;SDS011;68687;52.030;7.110;2023-07-13T06:52:49;22.70;;;8.23;;
41653;SDS011;68687;52.030;7.110;2023-07-13T06:55:14;19.23;;;9.02;;
41653;SDS011;68687;52.030;7.110;2023-07-13T06:57:42;19.13;;;7.25;;
41653;SDS011;68687;52.030;7.110;2023-07-13T07:00:08;16.27;;;7.53;;
41653;SDS011;68687;52.030;7.110;2023-07-13T07:02:34;14.77;;;7.80;;
41653;SDS011;68687;52.030;7.110;2023-07-13T07:05:00;17.38;;;7.85;;
41653;SDS011;68687;52.030;7.110;2023-07-13T07:07:26;18.25;;;7.65;;
41653;SDS011;68687;52.030;7.110;2023-07-13T07:09:51;17.63;;;8.35;;
41653;SDS011;68687;52.030;7.110;2023-07-13T07:12:19;17.45;;;9.02;;
41653;SDS011;68687;52.030;7.110;2023-07-13T07:14:44;18.85;;;8.27;;
41653;SDS011;68687;52.030;7.110;2023-07-13T07:17:10;17.15;;;8.60;;
41653;SDS011;68687;52.030;7.110;2023-07-13T07:19:35;18.73;;;8.60;;
41653;SDS011;68687;52.030;7.110;2023-07-13T07:22:00;20.75;;;8.80;;
41653;SDS011;68687;52.030;7.110;2023-07-13T07:24:29;20.10;;;9.68;;
41653;SDS011;68687;52.030;7.110;2023-07-13T07:26:54;22.02;;;9.27;;
41653;SDS011;68687;52.030;7.110;2023-07-13T07:29:25;21.73;;;9.95;;
41653;SDS011;68687;52.030;7.110;2023-07-13T07:31:52;22.65;;;9.65;;
41653;SDS011;68687;52.030;7.110;2023-07-13T07:34:18;21.77;;;9.98;;
41653;SDS011;68687;52.030;7.110;2023-07-13T07:36:58;22.38;;;9.50;;
41653;SDS011;68687;52.030;7.110;2023-07-13T07:39:25;15.32;;;9.52;;
41653;SDS011;68687;52.030;7.110;2023-07-13T07:41:50;20.38;;;8.80;;
41653;SDS011;68687;52.030;7.110;2023-07-13T07:44:25;19.52;;;9.90;;
41653;SDS011;68687;52.030;7.110;2023-07-13T07:46:51;20.70;;;9.65;;
41653;SDS011;68687;52.030;7.110;2023-07-13T07:49:17;20.80;;;9.90;;
41653;SDS011;68687;52.030;7.110;2023-07-13T07:51:42;20.00;;;9.75;;
41653;SDS011;68687;52.030;7.110;2023-07-13T07:54:07;16.70;;;9.30;;
41653;SDS011;68687;52.030;7.110;2023-07-13T07:56:36;22.42;;;9.60;;
41653;SDS011;68687;52.030;7.110;2023-07-13T07:59:01;17.58;;;9.82;;
41653;SDS011;68687;52.030;7.110;2023-07-13T08:01:26;21.02;;;9.90;;
41653;SDS011;68687;52.030;7.110;2023-07-13T08:03:54;20.42;;;9.20;;
41653;SDS011;68687;52.030;7.110;2023-07-13T08:06:20;22.65;;;10.23;;
41653;SDS011;68687;52.030;7.110;2023-07-13T08:08:46;25.00;;;10.85;;
41653;SDS011;68687;52.030;7.110;2023-07-13T08:11:12;23.48;;;9.73;;
41653;SDS011;68687;52.030;7.110;2023-07-13T08:13:37;24.63;;;10.57;;
41653;SDS011;68687;52.030;7.110;2023-07-13T08:16:06;19.05;;;9.63;;
41653;SDS011;68687;52.030;7.110;2023-07-13T08:18:32;23.40;;;10.63;;
41653;SDS011;68687;52.030;7.110;2023-07-13T08:20:57;22.55;;;9.65;;
41653;SDS011;68687;52.030;7.110;2023-07-13T08:23:26;20.00;;;10.05;;
41653;SDS011;68687;52.030;7.110;2023-07-13T08:25:52;22.42;;;10.20;;
41653;SDS011;68687;52.030;7.110;2023-07-13T08:28:19;24.38;;;10.50;;
41653;SDS011;68687;52.030;7.110;2023-07-13T08:30:45;22.55;;;9.45;;
41653;SDS011;68687;52.030;7.110;2023-07-13T08:33:13;21.08;;;10.13;;
41653;SDS011;68687;52.030;7.110;2023-07-13T08:35:39;16.70;;;9.73;;
41653;SDS011;68687;52.030;7.110;2023-07-13T08:38:04;22.38;;;8.95;;
41653;SDS011;68687;52.030;7.110;2023-07-13T08:40:29;21.58;;;9.95;;
41653;SDS011;68687;52.030;7.110;2023-07-13T08:42:56;21.88;;;10.60;;
41653;SDS011;68687;52.030;7.110;2023-07-13T08:45:29;20.85;;;9.63;;
41653;SDS011;68687;52.030;7.110;2023-07-13T08:53:49;18.33;;;10.90;;
41653;SDS011;68687;52.030;7.110;2023-07-13T08:56:21;26.05;;;10.35;;
41653;SDS011;68687;52.030;7.110;2023-07-13T08:58:51;17.02;;;10.43;;
41653;SDS011;68687;52.030;7.110;2023-07-13T09:01:40;17.40;;;9.52;;
41653;SDS011;68687;52.030;7.110;2023-07-13T09:04:16;22.30;;;9.98;;
41653;SDS011;68687;52.030;7.110;2023-07-13T09:09:40;22.80;;;9.70;;
41653;SDS011;68687;52.030;7.110;2023-07-13T09:15:43;18.85;;;8.93;;
41653;SDS011;68687;52.030;7.110;2023-07-13T09:21:03;18.70;;;8.88;;
41653;SDS011;68687;52.030;7.110;2023-07-13T09:23:37;17.00;;;8.77;;
41653;SDS011;68687;52.030;7.110;2023-07-13T09:26:17;19.92;;;8.40;;
41653;SDS011;68687;52.030;7.110;2023-07-13T09:28:46;16.05;;;8.90;;
41653;SDS011;68687;52.030;7.110;2023-07-13T09:34:17;18.73;;;8.43;;
41653;SDS011;68687;52.030;7.110;2023-07-13T09:36:48;16.83;;;8.90;;
41653;SDS011;68687;52.030;7.110;2023-07-13T09:47:18;19.10;;;8.90;;
41653;SDS011;68687;52.030;7.110;2023-07-13T09:49:47;16.65;;;9.55;;
41653;SDS011;68687;52.030;7.110;2023-07-13T09:52:19;20.77;;;9.43;;
41653;SDS011;68687;52.030;7.110;2023-07-13T09:54:54;19.20;;;8.95;;
41653;SDS011;68687;52.030;7.110;2023-07-13T09:57:26;20.08;;;9.35;;
41653;SDS011;68687;52.030;7.110;2023-07-13T09:59:53;14.50;;;8.90;;
41653;SDS011;68687;52.030;7.110;2023-07-13T10:02:35;20.27;;;9.27;;
41653;SDS011;68687;52.030;7.110;2023-07-13T10:05:02;18.80;;;9.07;;
41653;SDS011;68687;52.030;7.110;2023-07-13T10:07:28;15.40;;;8.35;;
41653;SDS011;68687;52.030;7.110;2023-07-13T10:09:56;18.83;;;8.82;;
41653;SDS011;68687;52.030;7.110;2023-07-13T10:12:23;16.88;;;8.88;;
41653;SDS011;68687;52.030;7.110;2023-07-13T10:14:54;13.93;;;8.18;;
41653;SDS011;68687;52.030;7.110;2023-07-13T10:17:24;14.93;;;7.50;;
41653;SDS011;68687;52.030;7.110;2023-07-13T10:19:55;16.55;;;7.80;;
41653;SDS011;68687;52.030;7.110;2023-07-13T10:25:20;16.77;;;7.38;;
41653;SDS011;68687;52.030;7.110;2023-07-13T10:27:55;16.27;;;6.85;;
41653;SDS011;68687;52.030;7.110;2023-07-13T10:33:27;13.50;;;6.40;;
41653;SDS011;68687;52.030;7.110;2023-07-13T10:35:54;11.13;;;5.75;;
41653;SDS011;68687;52.030;7.110;2023-07-13T10:38:29;11.90;;;5.95;;
41653;SDS011;68687;52.030;7.110;2023-07-13T10:41:02;11.90;;;6.05;;
41653;SDS011;68687;52.030;7.110;2023-07-13T10:43:43;14.98;;;6.95;;
41653;SDS011;68687;52.030;7.110;2023-07-13T10:46:12;15.43;;;5.82;;
41653;SDS011;68687;52.030;7.110;2023-07-13T10:48:41;18.98;;;6.32;;
41653;SDS011;68687;52.030;7.110;2023-07-13T10:51:10;8.32;;;6.40;;
41653;SDS011;68687;52.030;7.110;2023-07-13T10:53:37;10.45;;;5.72;;
41653;SDS011;68687;52.030;7.110;2023-07-13T10:56:06;15.57;;;6.43;;
41653;SDS011;68687;52.030;7.110;2023-07-13T10:58:41;10.20;;;5.75;;
41653;SDS011;68687;52.030;7.110;2023-07-13T11:01:15;9.80;;;5.38;;
41653;SDS011;68687;52.030;7.110;2023-07-13T11:03:54;7.63;;;5.38;;
41653;SDS011;68687;52.030;7.110;2023-07-13T11:08:54;12.23;;;6.00;;
41653;SDS011;68687;52.030;7.110;2023-07-13T11:19:08;11.45;;;6.45;;
41653;SDS011;68687;52.030;7.110;2023-07-13T11:24:28;13.20;;;5.53;;
41653;SDS011;68687;52.030;7.110;2023-07-13T11:26:58;12.82;;;6.03;;
41653;SDS011;68687;52.030;7.110;2023-07-13T11:29:36;11.93;;;6.32;;
41653;SDS011;68687;52.030;7.110;2023-07-13T11:32:20;14.23;;;6.50;;
41653;SDS011;68687;52.030;7.110;2023-07-13T11:34:54;11.25;;;5.78;;
41653;SDS011;68687;52.030;7.110;2023-07-13T11:37:20;14.85;;;6.10;;
41653;SDS011;68687;52.030;7.110;2023-07-13T11:39:47;17.08;;;6.38;;
41653;SDS011;68687;52.030;7.110;2023-07-13T11:42:17;19.20;;;8.43;;
41653;SDS011;68687;52.030;7.110;2023-07-13T11:44:45;15.10;;;8.23;;
41653;SDS011;68687;52.030;7.110;2023-07-13T11:47:19;17.52;;;8.48;;
41653;SDS011;68687;52.030;7.110;2023-07-13T11:49:50;14.32;;;8.35;;
41653;SDS011;68687;52.030;7.110;2023-07-13T11:52:54;18.58;;;9.43;;
41653;SDS011;68687;52.030;7.110;2023-07-13T11:55:16;18.63;;;9.15;;
41653;SDS011;68687;52.030;7.110;2023-07-13T11:57:44;16.98;;;9.57;;
41653;SDS011;68687;52.030;7.110;2023-07-13T12:00:15;17.05;;;8.82;;
41653;SDS011;68687;52.030;7.110;2023-07-13T12:02:45;15.43;;;8.55;;
41653;SDS011;68687;52.030;7.110;2023-07-13T12:05:14;12.40;;;7.68;;
41653;SDS011;68687;52.030;7.110;2023-07-13T12:07:42;15.38;;;7.60;;
41653;SDS011;68687;52.030;7.110;2023-07-13T12:12:34;17.48;;;8.35;;
41653;SDS011;68687;52.030;7.110;2023-07-13T12:15:06;13.75;;;7.50;;
41653;SDS011;68687;52.030;7.110;2023-07-13T12:17:33;13.70;;;7.20;;
41653;SDS011;68687;52.030;7.110;2023-07-13T12:20:00;8.70;;;6.32;;
41653;SDS011;68687;52.030;7.110;2023-07-13T12:22:29;13.82;;;6.57;;
41653;SDS011;68687;52.030;7.110;2023-07-13T12:24:57;11.25;;;5.82;;
41653;SDS011;68687;52.030;7.110;2023-07-13T12:27:24;10.98;;;6.25;;
41653;SDS011;68687;52.030;7.110;2023-07-13T12:29:52;9.43;;;6.18;;
41653;SDS011;68687;52.030;7.110;2023-07-13T12:32:23;11.77;;;6.05;;
41653;SDS011;68687;52.030;7.110;2023-07-13T12:35:23;12.70;;;5.38;;
41653;SDS011;68687;52.030;7.110;2023-07-13T12:37:46;11.52;;;5.82;;
41653;SDS011;68687;52.030;7.110;2023-07-13T12:40:16;6.82;;;5.60;;
41653;SDS011;68687;52.030;7.110;2023-07-13T12:42:45;13.35;;;5.88;;
41653;SDS011;68687;52.030;7.110;2023-07-13T12:45:23;14.20;;;6.47;;
41653;SDS011;68687;52.030;7.110;2023-07-13T12:47:52;8.82;;;6.20;;
41653;SDS011;68687;52.030;7.110;2023-07-13T12:50:23;11.40;;;6.35;;
41653;SDS011;68687;52.030;7.110;2023-07-13T12:52:54;7.78;;;6.35;;
41653;SDS011;68687;52.030;7.110;2023-07-13T12:55:24;12.90;;;5.57;;
41653;SDS011;68687;52.030;7.110;2023-07-13T13:00:30;9.18;;;6.15;;
41653;SDS011;68687;52.030;7.110;2023-07-13T13:03:06;11.35;;;5.63;;
41653;SDS011;68687;52.030;7.110;2023-07-13T13:05:45;10.27;;;6.45;;
41653;SDS011;68687;52.030;7.110;2023-07-13T13:08:11;9.40;;;5.78;;
41653;SDS011;68687;52.030;7.110;2023-07-13T13:10:36;7.07;;;5.70;;
41653;SDS011;68687;52.030;7.110;2023-07-13T13:13:02;6.70;;;6.00;;
41653;SDS011;68687;52.030;7.110;2023-07-13T13:15:28;12.02;;;5.65;;
41653;SDS011;68687;52.030;7.110;2023-07-13T13:17:55;8.00;;;5.20;;
41653;SDS011;68687;52.030;7.110;2023-07-13T13:20:21;6.47;;;5.55;;
41653;SDS011;68687;52.030;7.110;2023-07-13T13:22:47;11.48;;;6.07;;
41653;SDS011;68687;52.030;7.110;2023-07-13T13:25:13;7.32;;;5.38;;
41653;SDS011;68687;52.030;7.110;2023-07-13T13:27:40;7.13;;;4.95;;
41653;SDS011;68687;52.030;7.110;2023-07-13T13:30:11;8.10;;;5.65;;
41653;SDS011;68687;52.030;7.110;2023-07-13T13:32:41;6.65;;;5.43;;
41653;SDS011;68687;52.030;7.110;2023-07-13T13:35:12;5.57;;;5.07;;
41653;SDS011;68687;52.030;7.110;2023-07-13T13:37:39;7.72;;;5.13;;
41653;SDS011;68687;52.030;7.110;2023-07-13T13:40:12;6.82;;;5.43;;
41653;SDS011;68687;52.030;7.110;2023-07-13T13:42:38;6.47;;;5.20;;
41653;SDS011;68687;52.030;7.110;2023-07-13T13:45:03;6.93;;;4.80;;
41653;SDS011;68687;52.030;7.110;2023-07-13T13:47:30;8.18;;;4.78;;
41653;SDS011;68687;52.030;7.110;2023-07-13T13:49:57;6.50;;;4.95;;
41653;SDS011;68687;52.030;7.110;2023-07-13T13:52:23;5.65;;;4.20;;
41653;SDS011;68687;52.030;7.110;2023-07-13T13:54:50;7.78;;;5.32;;
41653;SDS011;68687;52.030;7.110;2023-07-13T13:57:20;8.02;;;5.57;;
41653;SDS011;68687;52.030;7.110;2023-07-13T13:59:47;5.05;;;4.45;;
41653;SDS011;68687;52.030;7.110;2023-07-13T14:02:28;8.50;;;4.70;;
41653;SDS011;68687;52.030;7.110;2023-07-13T14:04:59;7.35;;;4.43;;
41653;SDS011;68687;52.030;7.110;2023-07-13T14:07:27;7.22;;;4.53;;
41653;SDS011;68687;52.030;7.110;2023-07-13T14:09:57;8.32;;;4.38;;
41653;SDS011;68687;52.030;7.110;2023-07-13T14:12:30;10.43;;;4.28;;
41653;SDS011;68687;52.030;7.110;2023-07-13T14:14:56;7.47;;;4.18;;
41653;SDS011;68687;52.030;7.110;2023-07-13T14:17:24;8.77;;;4.13;;
41653;SDS011;68687;52.030;7.110;2023-07-13T14:19:52;6.00;;;4.20;;
41653;SDS011;68687;52.030;7.110;2023-07-13T14:22:28;9.65;;;4.53;;
41653;SDS011;68687;52.030;7.110;2023-07-13T14:24:56;6.85;;;3.10;;
41653;SDS011;68687;52.030;7.110;2023-07-13T14:27:26;4.10;;;2.72;;
41653;SDS011;68687;52.030;7.110;2023-07-13T14:29:54;6.22;;;3.10;;
41653;SDS011;68687;52.030;7.110;2023-07-13T14:32:20;4.20;;;3.13;;
41653;SDS011;68687;52.030;7.110;2023-07-13T14:34:45;5.47;;;3.63;;
41653;SDS011;68687;52.030;7.110;2023-07-13T14:37:20;3.90;;;2.97;;
41653;SDS011;68687;52.030;7.110;2023-07-13T14:39:59;5.07;;;2.92;;
41653;SDS011;68687;52.030;7.110;2023-07-13T14:42:25;6.40;;;3.03;;
41653;SDS011;68687;52.030;7.110;2023-07-13T14:44:53;8.25;;;3.72;;
41653;SDS011;68687;52.030;7.110;2023-07-13T14:47:19;6.30;;;3.28;;
41653;SDS011;68687;52.030;7.110;2023-07-13T14:49:44;5.23;;;3.00;;
41653;SDS011;68687;52.030;7.110;2023-07-13T14:52:20;3.17;;;2.35;;
41653;SDS011;68687;52.030;7.110;2023-07-13T14:54:47;3.13;;;2.83;;
41653;SDS011;68687;52.030;7.110;2023-07-13T14:57:14;4.95;;;2.70;;
41653;SDS011;68687;52.030;7.110;2023-07-13T14:59:44;4.97;;;2.90;;
41653;SDS011;68687;52.030;7.110;2023-07-13T15:02:28;3.38;;;2.72;;
41653;SDS011;68687;52.030;7.110;2023-07-13T15:04:56;6.53;;;2.63;;
41653;SDS011;68687;52.030;7.110;2023-07-13T15:07:25;4.53;;;2.83;;
41653;SDS011;68687;52.030;7.110;2023-07-13T15:09:53;3.63;;;2.60;;
41653;SDS011;68687;52.030;7.110;2023-07-13T15:12:19;3.47;;;2.92;;
41653;SDS011;68687;52.030;7.110;2023-07-13T15:14:45;9.18;;;3.25;;
41653;SDS011;68687;52.030;7.110;2023-07-13T15:20:15;4.93;;;2.70;;
41653;SDS011;68687;52.030;7.110;2023-07-13T15:22:43;7.22;;;3.00;;
41653;SDS011;68687;52.030;7.110;2023-07-13T15:25:29;5.45;;;3.10;;
41653;SDS011;68687;52.030;7.110;2023-07-13T15:27:59;7.07;;;3.70;;
41653;SDS011;68687;52.030;7.110;2023-07-13T15:30:29;4.93;;;2.95;;
41653;SDS011;68687;52.030;7.110;2023-07-13T15:33:23;8.75;;;3.60;;
41653;SDS011;68687;52.030;7.110;2023-07-13T15:35:51;4.57;;;3.22;;
41653;SDS011;68687;52.030;7.110;2023-07-13T15:38:19;7.90;;;3.53;;
41653;SDS011;68687;52.030;7.110;2023-07-13T15:40:50;5.63;;;2.97;;
41653;SDS011;68687;52.030;7.110;2023-07-13T15:43:16;6.55;;;3.33;;
41653;SDS011;68687;52.030;7.110;2023-07-13T15:45:43;4.18;;;2.88;;